sensor_id;sensor_type;location;lat;lon;timestamp;P1;durP1;ratioP1;P2;durP2;ratioP2
72037;SDS011;59900;50.788;12.904;2023-02-11T00:00:30;34.38;;;14.18;;
72037;SDS011;59900;50.788;12.904;2023-02-11T00:02:56;28.13;;;12.33;;
72037;SDS011;59900;50.788;12.904;2023-02-11T00:05:21;33.03;;;13.47;;
72037;SDS011;59900;50.788;12.904;2023-02-11T00:07:46;28.43;;;12.33;;
72037;SDS011;59900;50.788;12.904;2023-02-11T00:10:11;29.20;;;12.57;;
72037;SDS011;59900;50.788;12.904;2023-02-11T00:12:37;27.80;;;12.47;;
72037;SDS011;59900;50.788;12.904;2023-02-11T00:15:02;29.47;;;12.60;;
72037;SDS011;59900;50.788;12.904;2023-02-11T00:17:28;27.80;;;12.48;;
72037;SDS011;59900;50.788;12.904;2023-02-11T00:19:54;35.07;;;13.10;;
72037;SDS011;59900;50.788;12.904;2023-02-11T00:22:19;32.63;;;13.13;;
72037;SDS011;59900;50.788;12.904;2023-02-11T00:24:44;30.77;;;13.10;;
72037;SDS011;59900;50.788;12.904;2023-02-11T00:27:10;32.93;;;13.87;;
72037;SDS011;59900;50.788;12.904;2023-02-11T00:29:35;36.27;;;15.20;;
72037;SDS011;59900;50.788;12.904;2023-02-11T00:32:01;31.33;;;13.73;;
72037;SDS011;59900;50.788;12.904;2023-02-11T00:34:29;31.13;;;12.93;;
72037;SDS011;59900;50.788;12.904;2023-02-11T00:36:57;33.55;;;13.40;;
72037;SDS011;59900;50.788;12.904;2023-02-11T00:39:23;29.33;;;13.60;;
72037;SDS011;59900;50.788;12.904;2023-02-11T00:41:48;31.93;;;13.00;;
72037;SDS011;59900;50.788;12.904;2023-02-11T00:44:13;35.17;;;12.90;;
72037;SDS011;59900;50.788;12.904;2023-02-11T00:46:38;30.23;;;12.47;;
72037;SDS011;59900;50.788;12.904;2023-02-11T00:49:04;33.33;;;13.23;;
72037;SDS011;59900;50.788;12.904;2023-02-11T00:51:29;29.87;;;13.43;;
72037;SDS011;59900;50.788;12.904;2023-02-11T00:53:54;27.13;;;13.77;;
72037;SDS011;59900;50.788;12.904;2023-02-11T00:56:20;28.53;;;12.33;;
72037;SDS011;59900;50.788;12.904;2023-02-11T00:58:45;30.85;;;12.57;;
72037;SDS011;59900;50.788;12.904;2023-02-11T01:01:11;30.40;;;12.37;;
72037;SDS011;59900;50.788;12.904;2023-02-11T01:03:37;31.58;;;13.35;;
72037;SDS011;59900;50.788;12.904;2023-02-11T01:06:02;30.63;;;13.47;;
72037;SDS011;59900;50.788;12.904;2023-02-11T01:08:28;32.92;;;14.15;;
72037;SDS011;59900;50.788;12.904;2023-02-11T01:10:57;29.83;;;12.30;;
72037;SDS011;59900;50.788;12.904;2023-02-11T01:13:25;30.05;;;12.75;;
72037;SDS011;59900;50.788;12.904;2023-02-11T01:15:52;27.83;;;12.73;;
72037;SDS011;59900;50.788;12.904;2023-02-11T01:18:17;29.02;;;12.63;;
72037;SDS011;59900;50.788;12.904;2023-02-11T01:20:43;28.13;;;12.57;;
72037;SDS011;59900;50.788;12.904;2023-02-11T01:23:08;30.73;;;12.53;;
72037;SDS011;59900;50.788;12.904;2023-02-11T01:25:34;32.40;;;13.83;;
72037;SDS011;59900;50.788;12.904;2023-02-11T01:27:59;28.37;;;12.53;;
72037;SDS011;59900;50.788;12.904;2023-02-11T01:30:24;27.90;;;12.23;;
72037;SDS011;59900;50.788;12.904;2023-02-11T01:32:49;28.17;;;11.63;;
72037;SDS011;59900;50.788;12.904;2023-02-11T01:35:15;29.13;;;12.57;;
72037;SDS011;59900;50.788;12.904;2023-02-11T01:37:40;31.23;;;12.30;;
72037;SDS011;59900;50.788;12.904;2023-02-11T01:40:07;30.10;;;11.87;;
72037;SDS011;59900;50.788;12.904;2023-02-11T01:42:38;30.88;;;12.68;;
72037;SDS011;59900;50.788;12.904;2023-02-11T01:48:06;27.90;;;12.38;;
72037;SDS011;59900;50.788;12.904;2023-02-11T01:50:32;27.80;;;12.05;;
72037;SDS011;59900;50.788;12.904;2023-02-11T01:52:58;28.17;;;12.90;;
72037;SDS011;59900;50.788;12.904;2023-02-11T01:55:43;30.90;;;12.95;;
72037;SDS011;59900;50.788;12.904;2023-02-11T01:58:28;32.38;;;11.65;;
72037;SDS011;59900;50.788;12.904;2023-02-11T02:00:56;28.47;;;12.50;;
72037;SDS011;59900;50.788;12.904;2023-02-11T02:03:22;30.23;;;12.60;;
72037;SDS011;59900;50.788;12.904;2023-02-11T02:05:59;29.42;;;13.30;;
72037;SDS011;59900;50.788;12.904;2023-02-11T02:08:37;32.55;;;12.73;;
72037;SDS011;59900;50.788;12.904;2023-02-11T02:11:06;31.57;;;13.40;;
72037;SDS011;59900;50.788;12.904;2023-02-11T02:13:32;28.17;;;12.18;;
72037;SDS011;59900;50.788;12.904;2023-02-11T02:16:06;26.40;;;11.17;;
72037;SDS011;59900;50.788;12.904;2023-02-11T02:24:37;26.30;;;11.63;;
72037;SDS011;59900;50.788;12.904;2023-02-11T02:27:23;26.75;;;11.23;;
72037;SDS011;59900;50.788;12.904;2023-02-11T02:30:03;23.37;;;10.60;;
72037;SDS011;59900;50.788;12.904;2023-02-11T02:40:53;24.65;;;11.07;;
72037;SDS011;59900;50.788;12.904;2023-02-11T02:43:23;27.77;;;11.57;;
72037;SDS011;59900;50.788;12.904;2023-02-11T02:45:50;27.02;;;12.40;;
72037;SDS011;59900;50.788;12.904;2023-02-11T02:48:23;23.67;;;11.77;;
72037;SDS011;59900;50.788;12.904;2023-02-11T02:51:01;27.23;;;12.18;;
72037;SDS011;59900;50.788;12.904;2023-02-11T02:56:25;27.67;;;11.88;;
72037;SDS011;59900;50.788;12.904;2023-02-11T02:59:31;27.13;;;11.53;;
72037;SDS011;59900;50.788;12.904;2023-02-11T03:02:35;26.48;;;11.07;;
72037;SDS011;59900;50.788;12.904;2023-02-11T03:05:05;22.60;;;11.38;;
72037;SDS011;59900;50.788;12.904;2023-02-11T03:07:41;25.35;;;11.82;;
72037;SDS011;59900;50.788;12.904;2023-02-11T03:10:13;26.42;;;11.00;;
72037;SDS011;59900;50.788;12.904;2023-02-11T03:12:43;26.77;;;11.70;;
72037;SDS011;59900;50.788;12.904;2023-02-11T03:15:12;26.33;;;11.43;;
72037;SDS011;59900;50.788;12.904;2023-02-11T03:17:40;26.08;;;11.88;;
72037;SDS011;59900;50.788;12.904;2023-02-11T03:20:09;26.92;;;11.48;;
72037;SDS011;59900;50.788;12.904;2023-02-11T03:22:38;28.27;;;12.25;;
72037;SDS011;59900;50.788;12.904;2023-02-11T03:25:09;28.47;;;11.13;;
72037;SDS011;59900;50.788;12.904;2023-02-11T03:27:39;27.52;;;12.40;;
72037;SDS011;59900;50.788;12.904;2023-02-11T03:30:12;25.13;;;12.20;;
72037;SDS011;59900;50.788;12.904;2023-02-11T03:32:51;29.50;;;12.05;;
72037;SDS011;59900;50.788;12.904;2023-02-11T03:38:19;27.98;;;11.27;;
72037;SDS011;59900;50.788;12.904;2023-02-11T03:40:48;27.05;;;10.80;;
72037;SDS011;59900;50.788;12.904;2023-02-11T03:45:45;23.50;;;10.68;;
72037;SDS011;59900;50.788;12.904;2023-02-11T03:48:26;27.48;;;11.65;;
72037;SDS011;59900;50.788;12.904;2023-02-11T03:50:57;25.67;;;12.05;;
72037;SDS011;59900;50.788;12.904;2023-02-11T03:53:25;26.55;;;11.82;;
72037;SDS011;59900;50.788;12.904;2023-02-11T03:55:50;24.77;;;11.07;;
72037;SDS011;59900;50.788;12.904;2023-02-11T03:58:18;25.80;;;11.13;;
72037;SDS011;59900;50.788;12.904;2023-02-11T04:00:43;27.58;;;11.75;;
72037;SDS011;59900;50.788;12.904;2023-02-11T04:03:09;28.73;;;12.70;;
72037;SDS011;59900;50.788;12.904;2023-02-11T04:05:35;30.23;;;12.53;;
72037;SDS011;59900;50.788;12.904;2023-02-11T04:08:01;28.15;;;11.82;;
72037;SDS011;59900;50.788;12.904;2023-02-11T04:10:26;25.53;;;11.87;;
72037;SDS011;59900;50.788;12.904;2023-02-11T04:12:51;25.27;;;12.57;;
72037;SDS011;59900;50.788;12.904;2023-02-11T04:15:17;27.23;;;11.30;;
72037;SDS011;59900;50.788;12.904;2023-02-11T04:17:42;22.67;;;11.25;;
72037;SDS011;59900;50.788;12.904;2023-02-11T04:20:08;27.80;;;11.63;;
72037;SDS011;59900;50.788;12.904;2023-02-11T04:22:33;29.88;;;12.50;;
72037;SDS011;59900;50.788;12.904;2023-02-11T04:24:59;24.80;;;10.53;;
72037;SDS011;59900;50.788;12.904;2023-02-11T04:27:24;25.27;;;11.00;;
72037;SDS011;59900;50.788;12.904;2023-02-11T04:29:49;25.93;;;11.80;;
72037;SDS011;59900;50.788;12.904;2023-02-11T04:32:14;22.67;;;11.57;;
72037;SDS011;59900;50.788;12.904;2023-02-11T04:34:40;27.43;;;11.97;;
72037;SDS011;59900;50.788;12.904;2023-02-11T04:37:05;26.77;;;11.50;;
72037;SDS011;59900;50.788;12.904;2023-02-11T04:39:32;25.50;;;12.15;;
72037;SDS011;59900;50.788;12.904;2023-02-11T04:41:57;27.20;;;12.97;;
72037;SDS011;59900;50.788;12.904;2023-02-11T04:44:22;25.93;;;11.73;;
72037;SDS011;59900;50.788;12.904;2023-02-11T04:46:48;26.27;;;11.23;;
72037;SDS011;59900;50.788;12.904;2023-02-11T04:49:14;29.20;;;11.63;;
72037;SDS011;59900;50.788;12.904;2023-02-11T04:51:40;24.35;;;10.57;;
72037;SDS011;59900;50.788;12.904;2023-02-11T04:54:06;26.25;;;11.65;;
72037;SDS011;59900;50.788;12.904;2023-02-11T04:56:31;29.73;;;12.27;;
72037;SDS011;59900;50.788;12.904;2023-02-11T04:58:57;25.55;;;11.48;;
72037;SDS011;59900;50.788;12.904;2023-02-11T05:01:22;26.90;;;12.33;;
72037;SDS011;59900;50.788;12.904;2023-02-11T05:03:47;29.20;;;11.63;;
72037;SDS011;59900;50.788;12.904;2023-02-11T05:06:13;27.37;;;11.20;;
72037;SDS011;59900;50.788;12.904;2023-02-11T05:08:38;24.97;;;11.77;;
72037;SDS011;59900;50.788;12.904;2023-02-11T05:11:03;28.47;;;12.80;;
72037;SDS011;59900;50.788;12.904;2023-02-11T05:13:29;24.47;;;11.30;;
72037;SDS011;59900;50.788;12.904;2023-02-11T05:15:54;26.17;;;11.70;;
72037;SDS011;59900;50.788;12.904;2023-02-11T05:18:20;32.45;;;11.98;;
72037;SDS011;59900;50.788;12.904;2023-02-11T05:20:45;24.17;;;11.37;;
72037;SDS011;59900;50.788;12.904;2023-02-11T05:23:11;24.63;;;11.47;;
72037;SDS011;59900;50.788;12.904;2023-02-11T05:25:36;26.48;;;11.15;;
72037;SDS011;59900;50.788;12.904;2023-02-11T05:28:02;25.27;;;10.97;;
72037;SDS011;59900;50.788;12.904;2023-02-11T05:30:28;26.75;;;10.55;;
72037;SDS011;59900;50.788;12.904;2023-02-11T05:32:53;26.03;;;11.60;;
72037;SDS011;59900;50.788;12.904;2023-02-11T05:35:19;25.27;;;11.30;;
72037;SDS011;59900;50.788;12.904;2023-02-11T05:37:44;27.23;;;11.40;;
72037;SDS011;59900;50.788;12.904;2023-02-11T05:40:09;25.03;;;11.30;;
72037;SDS011;59900;50.788;12.904;2023-02-11T05:42:35;25.20;;;11.27;;
72037;SDS011;59900;50.788;12.904;2023-02-11T05:45:00;26.47;;;10.53;;
72037;SDS011;59900;50.788;12.904;2023-02-11T05:47:25;22.43;;;9.43;;
72037;SDS011;59900;50.788;12.904;2023-02-11T05:49:51;25.00;;;11.80;;
72037;SDS011;59900;50.788;12.904;2023-02-11T05:52:17;26.30;;;11.75;;
72037;SDS011;59900;50.788;12.904;2023-02-11T05:54:43;25.80;;;11.20;;
72037;SDS011;59900;50.788;12.904;2023-02-11T05:57:08;26.17;;;11.43;;
72037;SDS011;59900;50.788;12.904;2023-02-11T05:59:33;25.27;;;10.63;;
72037;SDS011;59900;50.788;12.904;2023-02-11T06:01:58;26.07;;;10.57;;
72037;SDS011;59900;50.788;12.904;2023-02-11T06:04:24;23.73;;;9.37;;
72037;SDS011;59900;50.788;12.904;2023-02-11T06:06:49;28.97;;;11.47;;
72037;SDS011;59900;50.788;12.904;2023-02-11T06:09:14;25.30;;;11.17;;
72037;SDS011;59900;50.788;12.904;2023-02-11T06:11:39;27.63;;;10.60;;
72037;SDS011;59900;50.788;12.904;2023-02-11T06:14:05;28.23;;;11.47;;
72037;SDS011;59900;50.788;12.904;2023-02-11T06:16:30;27.17;;;10.67;;
72037;SDS011;59900;50.788;12.904;2023-02-11T06:18:55;26.93;;;11.73;;
72037;SDS011;59900;50.788;12.904;2023-02-11T06:21:21;27.23;;;11.37;;
72037;SDS011;59900;50.788;12.904;2023-02-11T06:23:46;24.67;;;11.23;;
72037;SDS011;59900;50.788;12.904;2023-02-11T06:26:16;27.27;;;12.77;;
72037;SDS011;59900;50.788;12.904;2023-02-11T06:28:45;28.38;;;11.32;;
72037;SDS011;59900;50.788;12.904;2023-02-11T06:31:11;27.87;;;11.40;;
72037;SDS011;59900;50.788;12.904;2023-02-11T06:33:36;26.13;;;11.67;;
72037;SDS011;59900;50.788;12.904;2023-02-11T06:36:02;27.27;;;12.20;;
72037;SDS011;59900;50.788;12.904;2023-02-11T06:38:35;27.17;;;12.88;;
72037;SDS011;59900;50.788;12.904;2023-02-11T06:41:01;27.87;;;11.17;;
72037;SDS011;59900;50.788;12.904;2023-02-11T06:43:26;26.97;;;11.53;;
72037;SDS011;59900;50.788;12.904;2023-02-11T06:45:52;27.10;;;11.50;;
72037;SDS011;59900;50.788;12.904;2023-02-11T06:48:19;25.15;;;12.05;;
72037;SDS011;59900;50.788;12.904;2023-02-11T06:50:45;30.85;;;13.00;;
72037;SDS011;59900;50.788;12.904;2023-02-11T06:53:10;26.23;;;12.20;;
72037;SDS011;59900;50.788;12.904;2023-02-11T06:55:35;26.47;;;12.00;;
72037;SDS011;59900;50.788;12.904;2023-02-11T06:58:00;30.50;;;12.57;;
72037;SDS011;59900;50.788;12.904;2023-02-11T07:00:26;27.17;;;12.77;;
72037;SDS011;59900;50.788;12.904;2023-02-11T07:02:53;29.05;;;12.55;;
72037;SDS011;59900;50.788;12.904;2023-02-11T07:05:18;30.07;;;12.33;;
72037;SDS011;59900;50.788;12.904;2023-02-11T07:07:44;29.27;;;12.33;;
72037;SDS011;59900;50.788;12.904;2023-02-11T07:10:09;33.60;;;13.63;;
72037;SDS011;59900;50.788;12.904;2023-02-11T07:12:34;32.03;;;14.00;;
72037;SDS011;59900;50.788;12.904;2023-02-11T07:15:00;29.43;;;13.33;;
72037;SDS011;59900;50.788;12.904;2023-02-11T07:17:25;30.33;;;13.23;;
72037;SDS011;59900;50.788;12.904;2023-02-11T07:19:50;31.33;;;14.17;;
72037;SDS011;59900;50.788;12.904;2023-02-11T07:22:15;30.50;;;13.60;;
72037;SDS011;59900;50.788;12.904;2023-02-11T07:24:41;30.27;;;13.80;;
72037;SDS011;59900;50.788;12.904;2023-02-11T07:27:06;32.63;;;13.53;;
72037;SDS011;59900;50.788;12.904;2023-02-11T07:29:31;31.47;;;13.30;;
72037;SDS011;59900;50.788;12.904;2023-02-11T07:31:57;31.20;;;13.73;;
72037;SDS011;59900;50.788;12.904;2023-02-11T07:34:22;32.17;;;13.53;;
72037;SDS011;59900;50.788;12.904;2023-02-11T07:36:47;29.03;;;12.70;;
72037;SDS011;59900;50.788;12.904;2023-02-11T07:39:13;30.75;;;13.43;;
72037;SDS011;59900;50.788;12.904;2023-02-11T07:41:38;30.57;;;13.47;;
72037;SDS011;59900;50.788;12.904;2023-02-11T07:44:04;34.37;;;14.00;;
72037;SDS011;59900;50.788;12.904;2023-02-11T07:46:30;29.85;;;13.18;;
72037;SDS011;59900;50.788;12.904;2023-02-11T07:48:55;31.47;;;13.67;;
72037;SDS011;59900;50.788;12.904;2023-02-11T07:51:24;37.87;;;14.03;;
72037;SDS011;59900;50.788;12.904;2023-02-11T07:53:54;34.75;;;14.80;;
72037;SDS011;59900;50.788;12.904;2023-02-11T07:56:22;34.33;;;14.70;;
72037;SDS011;59900;50.788;12.904;2023-02-11T07:58:47;32.05;;;15.32;;
72037;SDS011;59900;50.788;12.904;2023-02-11T08:01:14;34.33;;;14.60;;
72037;SDS011;59900;50.788;12.904;2023-02-11T08:03:50;38.08;;;15.23;;
72037;SDS011;59900;50.788;12.904;2023-02-11T08:06:17;35.17;;;14.85;;
72037;SDS011;59900;50.788;12.904;2023-02-11T08:08:44;33.67;;;15.23;;
72037;SDS011;59900;50.788;12.904;2023-02-11T08:11:10;36.27;;;15.53;;
72037;SDS011;59900;50.788;12.904;2023-02-11T08:13:38;33.58;;;14.60;;
72037;SDS011;59900;50.788;12.904;2023-02-11T08:16:04;31.60;;;14.70;;
72037;SDS011;59900;50.788;12.904;2023-02-11T08:18:30;35.55;;;15.20;;
72037;SDS011;59900;50.788;12.904;2023-02-11T08:21:02;33.43;;;14.57;;
72037;SDS011;59900;50.788;12.904;2023-02-11T08:23:29;32.25;;;13.63;;
72037;SDS011;59900;50.788;12.904;2023-02-11T08:25:54;34.97;;;15.33;;
72037;SDS011;59900;50.788;12.904;2023-02-11T08:28:20;39.73;;;16.47;;
72037;SDS011;59900;50.788;12.904;2023-02-11T08:30:45;34.93;;;14.83;;
72037;SDS011;59900;50.788;12.904;2023-02-11T08:33:10;34.87;;;14.63;;
72037;SDS011;59900;50.788;12.904;2023-02-11T08:35:35;35.40;;;14.47;;
72037;SDS011;59900;50.788;12.904;2023-02-11T08:38:03;35.03;;;14.15;;
72037;SDS011;59900;50.788;12.904;2023-02-11T08:40:28;36.67;;;13.90;;
72037;SDS011;59900;50.788;12.904;2023-02-11T08:42:54;35.83;;;15.40;;
72037;SDS011;59900;50.788;12.904;2023-02-11T08:45:19;36.57;;;14.80;;
72037;SDS011;59900;50.788;12.904;2023-02-11T08:47:44;37.77;;;14.80;;
72037;SDS011;59900;50.788;12.904;2023-02-11T08:50:09;36.07;;;14.20;;
72037;SDS011;59900;50.788;12.904;2023-02-11T08:52:35;35.13;;;15.17;;
72037;SDS011;59900;50.788;12.904;2023-02-11T08:55:00;33.75;;;14.63;;
72037;SDS011;59900;50.788;12.904;2023-02-11T08:57:25;34.73;;;14.30;;
72037;SDS011;59900;50.788;12.904;2023-02-11T08:59:51;35.30;;;16.60;;
72037;SDS011;59900;50.788;12.904;2023-02-11T09:02:16;36.10;;;14.73;;
72037;SDS011;59900;50.788;12.904;2023-02-11T09:04:41;34.33;;;13.63;;
72037;SDS011;59900;50.788;12.904;2023-02-11T09:07:07;30.37;;;14.23;;
72037;SDS011;59900;50.788;12.904;2023-02-11T09:09:32;31.80;;;14.90;;
72037;SDS011;59900;50.788;12.904;2023-02-11T09:11:57;35.50;;;15.63;;
72037;SDS011;59900;50.788;12.904;2023-02-11T09:14:25;33.53;;;15.13;;
72037;SDS011;59900;50.788;12.904;2023-02-11T09:16:50;35.27;;;15.97;;
72037;SDS011;59900;50.788;12.904;2023-02-11T09:19:17;33.17;;;13.57;;
72037;SDS011;59900;50.788;12.904;2023-02-11T09:21:42;35.90;;;15.13;;
72037;SDS011;59900;50.788;12.904;2023-02-11T09:24:07;34.83;;;14.87;;
72037;SDS011;59900;50.788;12.904;2023-02-11T09:26:34;31.15;;;13.73;;
72037;SDS011;59900;50.788;12.904;2023-02-11T09:29:00;36.47;;;14.75;;
72037;SDS011;59900;50.788;12.904;2023-02-11T09:31:27;39.67;;;14.90;;
72037;SDS011;59900;50.788;12.904;2023-02-11T09:33:55;34.05;;;14.70;;
72037;SDS011;59900;50.788;12.904;2023-02-11T09:36:24;34.00;;;15.05;;
72037;SDS011;59900;50.788;12.904;2023-02-11T09:38:51;36.50;;;16.23;;
72037;SDS011;59900;50.788;12.904;2023-02-11T09:44:16;35.23;;;15.73;;
72037;SDS011;59900;50.788;12.904;2023-02-11T09:46:46;37.42;;;14.90;;
72037;SDS011;59900;50.788;12.904;2023-02-11T09:49:24;33.58;;;14.82;;
72037;SDS011;59900;50.788;12.904;2023-02-11T09:52:01;37.00;;;14.63;;
72037;SDS011;59900;50.788;12.904;2023-02-11T09:54:34;39.85;;;16.73;;
72037;SDS011;59900;50.788;12.904;2023-02-11T09:57:07;36.73;;;14.70;;
72037;SDS011;59900;50.788;12.904;2023-02-11T09:59:33;34.22;;;14.43;;
72037;SDS011;59900;50.788;12.904;2023-02-11T10:02:00;40.60;;;16.33;;
72037;SDS011;59900;50.788;12.904;2023-02-11T10:10:16;36.05;;;14.73;;
72037;SDS011;59900;50.788;12.904;2023-02-11T10:21:06;36.58;;;14.18;;
72037;SDS011;59900;50.788;12.904;2023-02-11T10:23:44;35.63;;;13.60;;
72037;SDS011;59900;50.788;12.904;2023-02-11T10:26:16;39.33;;;14.87;;
72037;SDS011;59900;50.788;12.904;2023-02-11T10:28:43;36.25;;;14.57;;
72037;SDS011;59900;50.788;12.904;2023-02-11T10:33:57;34.85;;;14.73;;
72037;SDS011;59900;50.788;12.904;2023-02-11T10:36:30;37.38;;;14.85;;
72037;SDS011;59900;50.788;12.904;2023-02-11T10:38:58;35.97;;;15.00;;
72037;SDS011;59900;50.788;12.904;2023-02-11T10:41:27;36.05;;;14.40;;
72037;SDS011;59900;50.788;12.904;2023-02-11T10:43:57;40.25;;;16.15;;
72037;SDS011;59900;50.788;12.904;2023-02-11T10:46:25;35.35;;;15.05;;
72037;SDS011;59900;50.788;12.904;2023-02-11T10:48:55;34.67;;;14.75;;
72037;SDS011;59900;50.788;12.904;2023-02-11T10:51:22;38.90;;;15.47;;
72037;SDS011;59900;50.788;12.904;2023-02-11T10:56:37;35.37;;;14.87;;
72037;SDS011;59900;50.788;12.904;2023-02-11T11:02:04;36.03;;;15.90;;
72037;SDS011;59900;50.788;12.904;2023-02-11T11:04:43;36.35;;;15.48;;
72037;SDS011;59900;50.788;12.904;2023-02-11T11:07:11;37.00;;;15.88;;
72037;SDS011;59900;50.788;12.904;2023-02-11T11:09:52;33.47;;;14.97;;
72037;SDS011;59900;50.788;12.904;2023-02-11T11:17:34;37.37;;;14.63;;
72037;SDS011;59900;50.788;12.904;2023-02-11T11:22:51;33.65;;;13.82;;
72037;SDS011;59900;50.788;12.904;2023-02-11T11:25:31;37.25;;;15.18;;
72037;SDS011;59900;50.788;12.904;2023-02-11T11:27:57;34.70;;;14.10;;
72037;SDS011;59900;50.788;12.904;2023-02-11T11:30:26;33.03;;;14.00;;
72037;SDS011;59900;50.788;12.904;2023-02-11T11:32:57;36.22;;;15.35;;
72037;SDS011;59900;50.788;12.904;2023-02-11T11:35:24;36.88;;;15.30;;
72037;SDS011;59900;50.788;12.904;2023-02-11T11:37:59;39.17;;;15.02;;
72037;SDS011;59900;50.788;12.904;2023-02-11T11:40:27;34.38;;;14.68;;
72037;SDS011;59900;50.788;12.904;2023-02-11T11:43:02;35.50;;;14.53;;
72037;SDS011;59900;50.788;12.904;2023-02-11T11:45:36;34.78;;;15.07;;
72037;SDS011;59900;50.788;12.904;2023-02-11T11:50:43;37.33;;;15.18;;
72037;SDS011;59900;50.788;12.904;2023-02-11T11:53:12;38.72;;;15.02;;
72037;SDS011;59900;50.788;12.904;2023-02-11T11:55:50;37.50;;;14.98;;
72037;SDS011;59900;50.788;12.904;2023-02-11T11:58:29;34.50;;;14.33;;
72037;SDS011;59900;50.788;12.904;2023-02-11T12:09:19;37.03;;;14.95;;
72037;SDS011;59900;50.788;12.904;2023-02-11T12:17:49;32.50;;;14.50;;
72037;SDS011;59900;50.788;12.904;2023-02-11T12:20:39;34.10;;;13.55;;
72037;SDS011;59900;50.788;12.904;2023-02-11T12:23:35;33.97;;;13.05;;
72037;SDS011;59900;50.788;12.904;2023-02-11T12:26:18;35.17;;;13.80;;
72037;SDS011;59900;50.788;12.904;2023-02-11T12:28:51;33.08;;;14.25;;
72037;SDS011;59900;50.788;12.904;2023-02-11T12:31:50;35.78;;;14.57;;
72037;SDS011;59900;50.788;12.904;2023-02-11T12:37:28;33.67;;;15.52;;
72037;SDS011;59900;50.788;12.904;2023-02-11T12:40:22;37.10;;;14.10;;
72037;SDS011;59900;50.788;12.904;2023-02-11T12:45:59;30.95;;;13.68;;
72037;SDS011;59900;50.788;12.904;2023-02-11T12:48:41;32.58;;;13.13;;
72037;SDS011;59900;50.788;12.904;2023-02-11T12:51:45;35.42;;;14.35;;
72037;SDS011;59900;50.788;12.904;2023-02-11T12:57:23;32.17;;;13.25;;
72037;SDS011;59900;50.788;12.904;2023-02-11T13:05:27;30.88;;;12.57;;
72037;SDS011;59900;50.788;12.904;2023-02-11T13:08:01;29.63;;;12.77;;
72037;SDS011;59900;50.788;12.904;2023-02-11T13:10:34;30.88;;;13.10;;
72037;SDS011;59900;50.788;12.904;2023-02-11T13:13:01;34.90;;;14.27;;
72037;SDS011;59900;50.788;12.904;2023-02-11T13:15:41;30.05;;;12.13;;
72037;SDS011;59900;50.788;12.904;2023-02-11T13:18:20;29.27;;;13.50;;
72037;SDS011;59900;50.788;12.904;2023-02-11T13:21:04;31.77;;;13.23;;
72037;SDS011;59900;50.788;12.904;2023-02-11T13:23:38;33.28;;;13.18;;
72037;SDS011;59900;50.788;12.904;2023-02-11T13:26:18;31.70;;;13.82;;
72037;SDS011;59900;50.788;12.904;2023-02-11T13:31:40;29.70;;;13.38;;
72037;SDS011;59900;50.788;12.904;2023-02-11T13:34:22;31.30;;;13.07;;
72037;SDS011;59900;50.788;12.904;2023-02-11T13:36:53;29.33;;;11.80;;
72037;SDS011;59900;50.788;12.904;2023-02-11T13:39:19;30.20;;;13.55;;
72037;SDS011;59900;50.788;12.904;2023-02-11T13:41:46;32.85;;;13.05;;
72037;SDS011;59900;50.788;12.904;2023-02-11T13:47:03;28.15;;;12.35;;
72037;SDS011;59900;50.788;12.904;2023-02-11T13:49:30;28.33;;;12.03;;
72037;SDS011;59900;50.788;12.904;2023-02-11T13:51:56;31.88;;;12.43;;
72037;SDS011;59900;50.788;12.904;2023-02-11T13:54:26;30.83;;;13.60;;
72037;SDS011;59900;50.788;12.904;2023-02-11T13:59:52;28.30;;;13.00;;
72037;SDS011;59900;50.788;12.904;2023-02-11T14:02:26;30.07;;;12.50;;
72037;SDS011;59900;50.788;12.904;2023-02-11T14:10:58;29.73;;;13.10;;
72037;SDS011;59900;50.788;12.904;2023-02-11T14:13:30;30.10;;;13.02;;
72037;SDS011;59900;50.788;12.904;2023-02-11T14:16:04;28.27;;;12.30;;
72037;SDS011;59900;50.788;12.904;2023-02-11T14:24:42;27.77;;;12.00;;
72037;SDS011;59900;50.788;12.904;2023-02-11T14:26:53;28.55;;;12.32;;
72037;SDS011;59900;50.788;12.904;2023-02-11T14:29:26;28.97;;;11.87;;
72037;SDS011;59900;50.788;12.904;2023-02-11T14:32:14;28.48;;;12.40;;
72037;SDS011;59900;50.788;12.904;2023-02-11T14:34:53;30.10;;;13.38;;
72037;SDS011;59900;50.788;12.904;2023-02-11T14:37:34;31.75;;;11.55;;
72037;SDS011;59900;50.788;12.904;2023-02-11T14:40:16;28.58;;;12.30;;
72037;SDS011;59900;50.788;12.904;2023-02-11T14:42:55;28.53;;;12.03;;
72037;SDS011;59900;50.788;12.904;2023-02-11T14:45:26;26.98;;;12.02;;
72037;SDS011;59900;50.788;12.904;2023-02-11T14:47:54;32.13;;;12.98;;
72037;SDS011;59900;50.788;12.904;2023-02-11T14:51:06;28.95;;;12.18;;
72037;SDS011;59900;50.788;12.904;2023-02-11T14:53:42;27.48;;;12.35;;
72037;SDS011;59900;50.788;12.904;2023-02-11T14:56:17;27.80;;;12.57;;
72037;SDS011;59900;50.788;12.904;2023-02-11T14:58:45;28.42;;;11.50;;
72037;SDS011;59900;50.788;12.904;2023-02-11T15:01:26;26.50;;;12.40;;
72037;SDS011;59900;50.788;12.904;2023-02-11T15:03:55;26.83;;;12.75;;
72037;SDS011;59900;50.788;12.904;2023-02-11T15:06:24;27.38;;;12.10;;
72037;SDS011;59900;50.788;12.904;2023-02-11T15:08:54;28.07;;;11.67;;
72037;SDS011;59900;50.788;12.904;2023-02-11T15:11:30;32.17;;;13.45;;
72037;SDS011;59900;50.788;12.904;2023-02-11T15:14:36;27.35;;;12.27;;
72037;SDS011;59900;50.788;12.904;2023-02-11T15:17:03;28.40;;;12.40;;
72037;SDS011;59900;50.788;12.904;2023-02-11T15:19:37;27.27;;;13.25;;
72037;SDS011;59900;50.788;12.904;2023-02-11T15:22:06;24.47;;;11.00;;
72037;SDS011;59900;50.788;12.904;2023-02-11T15:24:42;29.00;;;12.65;;
72037;SDS011;59900;50.788;12.904;2023-02-11T15:27:11;30.20;;;12.43;;
72037;SDS011;59900;50.788;12.904;2023-02-11T15:34:34;26.90;;;11.97;;
72037;SDS011;59900;50.788;12.904;2023-02-11T15:37:01;29.38;;;13.68;;
72037;SDS011;59900;50.788;12.904;2023-02-11T15:39:32;29.23;;;11.57;;
72037;SDS011;59900;50.788;12.904;2023-02-11T15:42:14;26.73;;;12.23;;
72037;SDS011;59900;50.788;12.904;2023-02-11T15:44:49;28.80;;;12.50;;
72037;SDS011;59900;50.788;12.904;2023-02-11T15:47:33;33.60;;;13.35;;
72037;SDS011;59900;50.788;12.904;2023-02-11T15:49:59;27.52;;;12.23;;
72037;SDS011;59900;50.788;12.904;2023-02-11T15:52:25;26.40;;;11.97;;
72037;SDS011;59900;50.788;12.904;2023-02-11T15:54:52;28.50;;;12.15;;
72037;SDS011;59900;50.788;12.904;2023-02-11T15:57:20;30.90;;;13.18;;
72037;SDS011;59900;50.788;12.904;2023-02-11T15:59:47;26.43;;;12.20;;
72037;SDS011;59900;50.788;12.904;2023-02-11T16:02:16;27.60;;;12.32;;
72037;SDS011;59900;50.788;12.904;2023-02-11T16:04:47;28.92;;;12.02;;
72037;SDS011;59900;50.788;12.904;2023-02-11T16:07:37;26.05;;;11.90;;
72037;SDS011;59900;50.788;12.904;2023-02-11T16:12:58;28.07;;;11.93;;
72037;SDS011;59900;50.788;12.904;2023-02-11T16:15:45;26.83;;;12.02;;
72037;SDS011;59900;50.788;12.904;2023-02-11T16:18:29;31.52;;;12.40;;
72037;SDS011;59900;50.788;12.904;2023-02-11T16:20:55;26.67;;;12.07;;